Uppsala, Sweden

4:37 AM CEST on July 05, 2015 (GMT +0200)
Arlanda | | Change Station
CLOSE
Current Station
Airport
Location: Stockholm Arlanda,
Elevation: 89 ft
Nearby Weather Stations

Elev 89 ft 59.63 °N, 17.95 °E | Updated 17 minutes ago

Clear
Clear
63 °F
Feels Like 63 °F
N
9
Wind Variable Wind from NE

Today
High -- | Low -- °F
--% Chance of Precip.
Yesterday
High -- | Low -- °F
Precip. -- in
3:37 AM 10:10 PM
Waning Gibbous, 88% visible
Pressure 30.06 in
Visibility -9999.0 miles
Clouds
Dew Point 59 °F
Humidity 88%
Rainfall 0.00 in
Snow Depth Not available.
UV Not available.
Pollen Not available.
Air Quality Not available.
Flu Activity Not available.
METAR ESSA 050220Z 04008KT CAVOK 17/15 Q1018 NOSIG

More Conditions Fewer Conditions

Pressure 30.06 in
Visibility -9999.0 miles
Clouds
Dew Point 59 °F
Humidity 88%
Rainfall 0.00 in
Snow Depth Not available.
UV Not available.
Pollen Not available.
Air Quality Not available.
Flu Activity Not available.
METAR ESSA 050220Z 04008KT CAVOK 17/15 Q1018 NOSIG

More Conditions Fewer Conditions

10-Day Weather Forecast

×

Almanac

Astronomy

Jul. 05, 2015 Rise Set
Actual Time
Civil Twilight
Nautical Twilight
Astronomical Twilight
Moon
Length of Visible Light
Length of Day
Tomorrow will be .
, % of the Moon is Illuminated

Today's Extremes

Country Highs Country Lows

Community

WunderPhotos

Upload Photos

1,835,169 photos uploaded!

WunderBlogs® & News

Nearby

Air Quality

  Air Quality AQ Index Pollutant
Not available.

Snow Depth

Station Depth Elevation

Earthquake Activity

City Distance Mag. Time & Date
Minimum magnitude displayed is 2.5.

Coastal Water Temperatures

Place Temperature

Stations

Nearby Weather Stations

Station Location Temp. Windchill Dew Point Humidity Wind Precip. Elev Updated Type